PWSweather.com
Personal Weather Stations
Station Observations

ChardChardGB

Lat: 50.877408, Lon: -2.94964741

Elevation: 341

Station Type: WS3083

http://www.merriott-astro.co.uk/weather/index.htm

High Low Average
Temperature 48.7°F9.3°C 37.4°F3.0°C 44.2°F6.8°C
Dew Point 39.9°F4.4°C 29.1°F-1.6°C 33.2°F0.7°C
Winds 19.3 mph 31.1 kmh Calm Calm 7.0 mph SW11.3 kmh SW
Wind Gusts 30.4 mph48.9 kmh -- 10.0 mph16.1 kmh
Humidity 84% 49% 66%
Pressure 29.64 in1003.7 mb 29.02 in982.7 mb -
Precipitation 0.05 in1.3 mm - -
Hour Temp Dew Point Humidity Winds Wind Gusts Pressure Precip Precip Rate Daily Precip Total
12:00 AM 39.7°F4.3°C 30.4°F-0.9°C 69% 3.8 mph WNW6.1 kmh WNW 5.4 mph8.7 kmh 29.64 in1003.7 mb 0.00 in0.0 mm 0.00 in0.0 mm 0.00 in0.0 mm
12:10 AM 39.9°F4.4°C 30.9°F-0.6°C 70% 4.2 mph W6.8 kmh W 8.3 mph13.4 kmh 29.63 in1003.4 mb 0.00 in0.0 mm 0.00 in0.0 mm 0.00 in0.0 mm
12:20 AM 39.9°F4.4°C 30.9°F-0.6°C 70% 4.3 mph SSW6.9 kmh SSW 6.0 mph9.7 kmh 29.63 in1003.4 mb 0.00 in0.0 mm 0.00 in0.0 mm 0.00 in0.0 mm
12:30 AM 39.9°F4.4°C 30.9°F-0.6°C 70% 3.8 mph SW6.1 kmh SW 6.0 mph9.7 kmh 29.62 in1003.0 mb 0.00 in0.0 mm 0.00 in0.0 mm 0.00 in0.0 mm
12:40 AM 39.7°F4.3°C 30.8°F-0.7°C 70% 4.1 mph W6.6 kmh W 6.0 mph9.7 kmh 29.62 in1003.0 mb 0.00 in0.0 mm 0.00 in0.0 mm 0.00 in0.0 mm
12:50 AM 39.9°F4.4°C 31.3°F-0.4°C 71% 3.7 mph W6.0 kmh W 6.9 mph11.1 kmh 29.61 in1002.7 mb 0.00 in0.0 mm 0.00 in0.0 mm 0.00 in0.0 mm
01:00 AM 39.9°F4.4°C 31.6°F-0.2°C 72% 3.3 mph SW5.3 kmh SW 4.5 mph7.2 kmh 29.61 in1002.7 mb 0.00 in0.0 mm 0.00 in0.0 mm 0.00 in0.0 mm
01:10 AM 39.9°F4.4°C 31.6°F-0.2°C 72% 3.1 mph WSW5.0 kmh WSW 6.0 mph9.7 kmh 29.61 in1002.7 mb 0.00 in0.0 mm 0.00 in0.0 mm 0.00 in0.0 mm
01:20 AM 39.9°F4.4°C 31.6°F-0.2°C 72% 3.3 mph WSW5.3 kmh WSW 6.0 mph9.7 kmh 29.60 in1002.4 mb 0.00 in0.0 mm 0.00 in0.0 mm 0.00 in0.0 mm
01:30 AM 39.9°F4.4°C 32.0°F0.0°C 73% 3.9 mph SW6.3 kmh SW 6.0 mph9.7 kmh 29.60 in1002.4 mb 0.00 in0.0 mm 0.00 in0.0 mm 0.00 in0.0 mm
01:40 AM 39.6°F4.2°C 31.6°F-0.2°C 73% 3.6 mph SW5.8 kmh SW 4.5 mph7.2 kmh 29.60 in1002.4 mb 0.00 in0.0 mm 0.00 in0.0 mm 0.00 in0.0 mm
01:50 AM 39.6°F4.2°C 32.0°F0.0°C 74% 3.5 mph SW5.6 kmh SW 6.0 mph9.7 kmh 29.59 in1002.0 mb 0.00 in0.0 mm 0.00 in0.0 mm 0.00 in0.0 mm
02:00 AM 39.9°F4.4°C 32.7°F0.4°C 75% 4.3 mph WNW6.9 kmh WNW 9.8 mph15.8 kmh 29.59 in1002.0 mb 0.00 in0.0 mm 0.00 in0.0 mm 0.00 in0.0 mm
02:10 AM 40.1°F4.5°C 32.8°F0.4°C 75% 4.6 mph WSW7.4 kmh WSW 6.9 mph11.1 kmh 29.58 in1001.7 mb 0.00 in0.0 mm 0.00 in0.0 mm 0.00 in0.0 mm
02:20 AM 39.9°F4.4°C 32.7°F0.4°C 75% 4.7 mph NW7.6 kmh NW 6.9 mph11.1 kmh 29.59 in1002.0 mb 0.00 in0.0 mm 0.00 in0.0 mm 0.00 in0.0 mm
02:30 AM 39.9°F4.4°C 32.7°F0.4°C 75% 4.7 mph WNW7.6 kmh WNW 6.9 mph11.1 kmh 29.58 in1001.7 mb 0.00 in0.0 mm 0.00 in0.0 mm 0.00 in0.0 mm
02:40 AM 39.9°F4.4°C 33.0°F0.6°C 76% 4.4 mph W7.1 kmh W 6.0 mph9.7 kmh 29.58 in1001.7 mb 0.00 in0.0 mm 0.00 in0.0 mm 0.00 in0.0 mm
02:50 AM 39.9°F4.4°C 33.0°F0.6°C 76% 3.3 mph SW5.3 kmh SW 4.5 mph7.2 kmh 29.57 in1001.4 mb 0.00 in0.0 mm 0.00 in0.0 mm 0.00 in0.0 mm
03:00 AM 39.7°F4.3°C 33.1°F0.6°C 77% 4.0 mph SSW6.4 kmh SSW 5.4 mph8.7 kmh 29.57 in1001.4 mb 0.00 in0.0 mm 0.00 in0.0 mm 0.00 in0.0 mm
03:10 AM 38.3°F3.5°C 31.1°F-0.5°C 75% 3.1 mph S5.0 kmh S 5.4 mph8.7 kmh 29.57 in1001.4 mb 0.00 in0.0 mm 0.00 in0.0 mm 0.00 in0.0 mm
03:20 AM 37.8°F3.2°C 30.6°F-0.8°C 75% 3.3 mph SSW5.3 kmh SSW 4.5 mph7.2 kmh 29.57 in1001.4 mb 0.00 in0.0 mm 0.00 in0.0 mm 0.00 in0.0 mm
03:30 AM 37.6°F3.1°C 30.4°F-0.9°C 75% 2.6 mph SSE4.2 kmh SSE 3.8 mph6.1 kmh 29.56 in1001.0 mb 0.00 in0.0 mm 0.00 in0.0 mm 0.00 in0.0 mm
03:40 AM 37.4°F3.0°C 30.5°F-0.8°C 76% 1.3 mph E2.1 kmh E 3.8 mph6.1 kmh 29.56 in1001.0 mb 0.00 in0.0 mm 0.00 in0.0 mm 0.00 in0.0 mm
03:50 AM 37.8°F3.2°C 31.5°F-0.3°C 78% 0.1 mph NE0.2 kmh NE 2.2 mph3.5 kmh 29.56 in1001.0 mb 0.00 in0.0 mm 0.00 in0.0 mm 0.00 in0.0 mm
04:00 AM 38.3°F3.5°C 32.4°F0.2°C 79% Calm Calm -- 29.56 in1001.0 mb 0.00 in0.0 mm 0.00 in0.0 mm 0.00 in0.0 mm
04:10 AM 38.5°F3.6°C 32.9°F0.5°C 80% Calm Calm -- 29.56 in1001.0 mb 0.00 in0.0 mm 0.00 in0.0 mm 0.00 in0.0 mm
04:20 AM 38.5°F3.6°C 32.9°F0.5°C 80% Calm Calm -- 29.56 in1001.0 mb 0.00 in0.0 mm 0.00 in0.0 mm 0.00 in0.0 mm
04:30 AM 39.0°F3.9°C 33.4°F0.8°C 80% Calm Calm -- 29.55 in1000.7 mb 0.00 in0.0 mm 0.00 in0.0 mm 0.00 in0.0 mm
04:40 AM 39.2°F4.0°C 33.6°F0.9°C 80% Calm Calm -- 29.54 in1000.3 mb 0.00 in0.0 mm 0.00 in0.0 mm 0.00 in0.0 mm
04:50 AM 39.9°F4.4°C 34.3°F1.3°C 80% 0.1 mph S0.2 kmh S 3.8 mph6.1 kmh 29.54 in1000.3 mb 0.00 in0.0 mm 0.00 in0.0 mm 0.00 in0.0 mm
05:00 AM 40.3°F4.6°C 34.6°F1.4°C 80% 1.8 mph SW2.9 kmh SW 5.4 mph8.7 kmh 29.53 in1000.0 mb 0.00 in0.0 mm 0.00 in0.0 mm 0.00 in0.0 mm
05:10 AM 40.8°F4.9°C 35.1°F1.7°C 80% 4.4 mph WNW7.1 kmh WNW 7.6 mph12.2 kmh 29.55 in1000.7 mb 0.00 in0.0 mm 0.00 in0.0 mm 0.00 in0.0 mm
05:20 AM 41.2°F5.1°C 35.5°F1.9°C 80% 3.8 mph NW6.1 kmh NW 6.0 mph9.7 kmh 29.53 in1000.0 mb 0.00 in0.0 mm 0.00 in0.0 mm 0.00 in0.0 mm
05:30 AM 41.4°F5.2°C 35.7°F2.1°C 80% 5.9 mph NW9.5 kmh NW 9.2 mph14.8 kmh 29.53 in1000.0 mb 0.00 in0.0 mm 0.00 in0.0 mm 0.00 in0.0 mm
05:40 AM 41.5°F5.3°C 35.5°F1.9°C 79% 6.2 mph NW10.0 kmh NW 7.6 mph12.2 kmh 29.53 in1000.0 mb 0.00 in0.0 mm 0.00 in0.0 mm 0.00 in0.0 mm
05:50 AM 41.9°F5.5°C 34.9°F1.6°C 76% 7.4 mph NW11.9 kmh NW 9.8 mph15.8 kmh 29.53 in1000.0 mb 0.00 in0.0 mm 0.00 in0.0 mm 0.00 in0.0 mm
06:00 AM 42.1°F5.6°C 34.4°F1.3°C 74% 7.3 mph NW11.7 kmh NW 9.8 mph15.8 kmh 29.53 in1000.0 mb 0.00 in0.0 mm 0.00 in0.0 mm 0.00 in0.0 mm
06:10 AM 41.9°F5.5°C 33.9°F1.1°C 73% 6.7 mph NW10.8 kmh NW 8.3 mph13.4 kmh 29.53 in1000.0 mb 0.00 in0.0 mm 0.00 in0.0 mm 0.00 in0.0 mm
06:20 AM 41.9°F5.5°C 33.5°F0.8°C 72% 8.1 mph WNW13.0 kmh WNW 10.7 mph17.2 kmh 29.52 in999.7 mb 0.00 in0.0 mm 0.00 in0.0 mm 0.00 in0.0 mm
06:30 AM 41.5°F5.3°C 33.2°F0.7°C 72% 6.5 mph SW10.5 kmh SW 9.8 mph15.8 kmh 29.53 in1000.0 mb 0.00 in0.0 mm 0.00 in0.0 mm 0.00 in0.0 mm
06:40 AM 41.4°F5.2°C 32.7°F0.4°C 71% 6.9 mph WSW11.1 kmh WSW 9.8 mph15.8 kmh 29.52 in999.7 mb 0.00 in0.0 mm 0.00 in0.0 mm 0.00 in0.0 mm
06:50 AM 41.2°F5.1°C 32.2°F0.1°C 70% 8.3 mph NNW13.4 kmh NNW 11.4 mph18.3 kmh 29.52 in999.7 mb 0.00 in0.0 mm 0.00 in0.0 mm 0.00 in0.0 mm
07:00 AM 41.0°F5.0°C 32.0°F0.0°C 70% 6.1 mph W9.8 kmh W 8.3 mph13.4 kmh 29.52 in999.7 mb 0.00 in0.0 mm 0.00 in0.0 mm 0.00 in0.0 mm
07:10 AM 41.0°F5.0°C 32.0°F0.0°C 70% 5.0 mph S8.0 kmh S 6.0 mph9.7 kmh 29.52 in999.7 mb 0.00 in0.0 mm 0.00 in0.0 mm 0.00 in0.0 mm
07:20 AM 41.4°F5.2°C 32.0°F0.0°C 69% 5.5 mph S8.9 kmh S 8.3 mph13.4 kmh 29.52 in999.7 mb 0.00 in0.0 mm 0.00 in0.0 mm 0.00 in0.0 mm
07:30 AM 43.5°F6.4°C 33.3°F0.7°C 67% 4.1 mph WSW6.6 kmh WSW 5.4 mph8.7 kmh 29.53 in1000.0 mb 0.00 in0.0 mm 0.00 in0.0 mm 0.00 in0.0 mm
07:40 AM 45.0°F7.2°C 33.1°F0.6°C 63% 3.6 mph W5.8 kmh W 5.4 mph8.7 kmh 29.52 in999.7 mb 0.00 in0.0 mm 0.00 in0.0 mm 0.00 in0.0 mm
07:50 AM 45.7°F7.6°C 31.3°F-0.4°C 57% 4.6 mph NW7.4 kmh NW 6.9 mph11.1 kmh 29.52 in999.7 mb 0.00 in0.0 mm 0.00 in0.0 mm 0.00 in0.0 mm
08:00 AM 46.9°F8.3°C 31.2°F-0.4°C 54% 4.7 mph NW7.6 kmh NW 7.6 mph12.2 kmh 29.52 in999.7 mb 0.00 in0.0 mm 0.00 in0.0 mm 0.00 in0.0 mm
08:10 AM 48.6°F9.2°C 32.2°F0.1°C 53% 3.8 mph WNW6.1 kmh WNW 6.0 mph9.7 kmh 29.52 in999.7 mb 0.00 in0.0 mm 0.00 in0.0 mm 0.00 in0.0 mm
08:20 AM 48.6°F9.2°C 30.8°F-0.7°C 50% 4.4 mph NW7.1 kmh NW 6.0 mph9.7 kmh 29.52 in999.7 mb 0.00 in0.0 mm 0.00 in0.0 mm 0.00 in0.0 mm
08:30 AM 48.2°F9.0°C 30.4°F-0.9°C 50% 5.3 mph WNW8.5 kmh WNW 8.3 mph13.4 kmh 29.52 in999.7 mb 0.00 in0.0 mm 0.00 in0.0 mm 0.00 in0.0 mm
08:40 AM 48.4°F9.1°C 31.1°F-0.5°C 51% 4.0 mph W6.4 kmh W 5.4 mph8.7 kmh 29.51 in999.3 mb 0.00 in0.0 mm 0.00 in0.0 mm 0.00 in0.0 mm
08:50 AM 47.1°F8.4°C 29.9°F-1.2°C 51% 5.6 mph W9.0 kmh W 9.2 mph14.8 kmh 29.51 in999.3 mb 0.00 in0.0 mm 0.00 in0.0 mm 0.00 in0.0 mm
09:00 AM 46.9°F8.3°C 29.8°F-1.2°C 51% 6.1 mph SW9.8 kmh SW 9.2 mph14.8 kmh 29.50 in999.0 mb 0.00 in0.0 mm 0.00 in0.0 mm 0.00 in0.0 mm
09:10 AM 48.7°F9.3°C 30.9°F-0.6°C 50% 5.0 mph WNW8.0 kmh WNW 6.9 mph11.1 kmh 29.50 in999.0 mb 0.00 in0.0 mm 0.00 in0.0 mm 0.00 in0.0 mm
09:20 AM 47.5°F8.6°C 29.3°F-1.5°C 49% 6.4 mph WNW10.3 kmh WNW 8.3 mph13.4 kmh 29.50 in999.0 mb 0.00 in0.0 mm 0.00 in0.0 mm 0.00 in0.0 mm
09:30 AM 46.8°F8.2°C 29.1°F-1.6°C 50% 5.9 mph WSW9.5 kmh WSW 10.7 mph17.2 kmh 29.49 in998.6 mb 0.00 in0.0 mm 0.00 in0.0 mm 0.00 in0.0 mm
09:40 AM 46.9°F8.3°C 29.8°F-1.2°C 51% 4.3 mph WSW6.9 kmh WSW 6.0 mph9.7 kmh 29.50 in999.0 mb 0.00 in0.0 mm 0.00 in0.0 mm 0.00 in0.0 mm
09:50 AM 46.4°F8.0°C 29.7°F-1.3°C 52% 5.6 mph WSW9.0 kmh WSW 8.3 mph13.4 kmh 29.49 in998.6 mb 0.00 in0.0 mm 0.00 in0.0 mm 0.00 in0.0 mm
10:00 AM 46.4°F8.0°C 29.7°F-1.3°C 52% 3.9 mph WSW6.3 kmh WSW 5.4 mph8.7 kmh 29.49 in998.6 mb 0.00 in0.0 mm 0.00 in0.0 mm 0.00 in0.0 mm
10:10 AM 46.8°F8.2°C 30.5°F-0.8°C 53% 2.8 mph W4.5 kmh W 3.8 mph6.1 kmh 29.49 in998.6 mb 0.00 in0.0 mm 0.00 in0.0 mm 0.00 in0.0 mm
10:20 AM 46.6°F8.1°C 30.4°F-0.9°C 53% 3.4 mph SW5.5 kmh SW 4.5 mph7.2 kmh 29.49 in998.6 mb 0.00 in0.0 mm 0.00 in0.0 mm 0.00 in0.0 mm
10:30 AM 46.9°F8.3°C 30.2°F-1.0°C 52% 4.0 mph SSW6.4 kmh SSW 5.4 mph8.7 kmh 29.47 in998.0 mb 0.00 in0.0 mm 0.00 in0.0 mm 0.00 in0.0 mm
10:40 AM 46.9°F8.3°C 30.2°F-1.0°C 52% 5.1 mph WSW8.2 kmh WSW 6.9 mph11.1 kmh 29.48 in998.3 mb 0.00 in0.0 mm 0.00 in0.0 mm 0.00 in0.0 mm
10:50 AM 47.1°F8.4°C 30.4°F-0.9°C 52% 5.1 mph S8.2 kmh S 6.9 mph11.1 kmh 29.47 in998.0 mb 0.00 in0.0 mm 0.00 in0.0 mm 0.00 in0.0 mm
11:00 AM 47.1°F8.4°C 30.4°F-0.9°C 52% 5.8 mph SW9.3 kmh SW 8.3 mph13.4 kmh 29.46 in997.6 mb 0.00 in0.0 mm 0.00 in0.0 mm 0.00 in0.0 mm
11:10 AM 47.3°F8.5°C 30.1°F-1.1°C 51% 5.7 mph WSW9.2 kmh WSW 6.9 mph11.1 kmh 29.46 in997.6 mb 0.00 in0.0 mm 0.00 in0.0 mm 0.00 in0.0 mm
11:20 AM 47.7°F8.7°C 30.4°F-0.9°C 51% 5.7 mph SW9.2 kmh SW 7.6 mph12.2 kmh 29.46 in997.6 mb 0.00 in0.0 mm 0.00 in0.0 mm 0.00 in0.0 mm
11:30 AM 47.7°F8.7°C 30.4°F-0.9°C 51% 6.9 mph WSW11.1 kmh WSW 9.8 mph15.8 kmh 29.45 in997.3 mb 0.00 in0.0 mm 0.00 in0.0 mm 0.00 in0.0 mm
11:40 AM 47.7°F8.7°C 29.9°F-1.2°C 50% 6.4 mph S10.3 kmh S 9.8 mph15.8 kmh 29.44 in997.0 mb 0.00 in0.0 mm 0.00 in0.0 mm 0.00 in0.0 mm
11:50 AM 47.5°F8.6°C 29.8°F-1.2°C 50% 8.8 mph SW14.2 kmh SW 13.6 mph21.9 kmh 29.44 in997.0 mb 0.00 in0.0 mm 0.00 in0.0 mm 0.00 in0.0 mm
12:00 PM 47.8°F8.8°C 30.1°F-1.1°C 50% 7.2 mph WSW11.6 kmh WSW 13.6 mph21.9 kmh 29.44 in997.0 mb 0.00 in0.0 mm 0.00 in0.0 mm 0.00 in0.0 mm
12:10 PM 47.7°F8.7°C 29.9°F-1.2°C 50% 7.4 mph WSW11.9 kmh WSW 9.8 mph15.8 kmh 29.43 in996.6 mb 0.00 in0.0 mm 0.00 in0.0 mm 0.00 in0.0 mm
12:20 PM 47.5°F8.6°C 29.8°F-1.2°C 50% 7.7 mph WSW12.4 kmh WSW 13.0 mph20.9 kmh 29.43 in996.6 mb 0.00 in0.0 mm 0.00 in0.0 mm 0.00 in0.0 mm
12:30 PM 47.7°F8.7°C 29.9°F-1.2°C 50% 6.0 mph SSW9.7 kmh SSW 9.2 mph14.8 kmh 29.42 in996.3 mb 0.00 in0.0 mm 0.00 in0.0 mm 0.00 in0.0 mm
12:40 PM 47.7°F8.7°C 29.9°F-1.2°C 50% 6.9 mph SW11.1 kmh SW 10.7 mph17.2 kmh 29.42 in996.3 mb 0.00 in0.0 mm 0.00 in0.0 mm 0.00 in0.0 mm
12:50 PM 47.8°F8.8°C 30.1°F-1.1°C 50% 5.0 mph WSW8.0 kmh WSW 7.6 mph12.2 kmh 29.42 in996.3 mb 0.00 in0.0 mm 0.00 in0.0 mm 0.00 in0.0 mm
01:00 PM 47.7°F8.7°C 29.9°F-1.2°C 50% 6.7 mph SW10.8 kmh SW 9.2 mph14.8 kmh 29.41 in995.9 mb 0.00 in0.0 mm 0.00 in0.0 mm 0.00 in0.0 mm
01:10 PM 46.9°F8.3°C 29.8°F-1.2°C 51% 7.5 mph NW12.1 kmh NW 10.7 mph17.2 kmh 29.40 in995.6 mb 0.00 in0.0 mm 0.00 in0.0 mm 0.00 in0.0 mm
01:20 PM 47.5°F8.6°C 30.3°F-0.9°C 51% 6.6 mph SW10.6 kmh SW 9.8 mph15.8 kmh 29.40 in995.6 mb 0.00 in0.0 mm 0.00 in0.0 mm 0.00 in0.0 mm
01:30 PM 47.3°F8.5°C 30.1°F-1.1°C 51% 6.4 mph S10.3 kmh S 9.2 mph14.8 kmh 29.39 in995.3 mb 0.00 in0.0 mm 0.00 in0.0 mm 0.00 in0.0 mm
01:40 PM 47.1°F8.4°C 29.9°F-1.2°C 51% 6.0 mph SW9.7 kmh SW 10.7 mph17.2 kmh 29.39 in995.3 mb 0.00 in0.0 mm 0.00 in0.0 mm 0.00 in0.0 mm
01:50 PM 47.1°F8.4°C 30.4°F-0.9°C 52% 5.1 mph SW8.2 kmh SW 7.6 mph12.2 kmh 29.39 in995.3 mb 0.00 in0.0 mm 0.00 in0.0 mm 0.00 in0.0 mm
02:00 PM 47.3°F8.5°C 30.1°F-1.1°C 51% 3.8 mph SW6.1 kmh SW 6.9 mph11.1 kmh 29.38 in994.9 mb 0.00 in0.0 mm 0.00 in0.0 mm 0.00 in0.0 mm
02:10 PM 47.1°F8.4°C 29.9°F-1.2°C 51% 5.8 mph S9.3 kmh S 7.6 mph12.2 kmh 29.37 in994.6 mb 0.00 in0.0 mm 0.00 in0.0 mm 0.00 in0.0 mm
02:20 PM 47.3°F8.5°C 30.6°F-0.8°C 52% 4.9 mph SW7.9 kmh SW 9.2 mph14.8 kmh 29.36 in994.2 mb 0.00 in0.0 mm 0.00 in0.0 mm 0.00 in0.0 mm
02:30 PM 46.9°F8.3°C 30.2°F-1.0°C 52% 5.7 mph SSW9.2 kmh SSW 9.8 mph15.8 kmh 29.36 in994.2 mb 0.00 in0.0 mm 0.00 in0.0 mm 0.00 in0.0 mm
02:40 PM 46.9°F8.3°C 30.2°F-1.0°C 52% 5.6 mph SSW9.0 kmh SSW 7.6 mph12.2 kmh 29.35 in993.9 mb 0.00 in0.0 mm 0.00 in0.0 mm 0.00 in0.0 mm
02:50 PM 47.1°F8.4°C 30.4°F-0.9°C 52% 6.2 mph SW10.0 kmh SW 8.3 mph13.4 kmh 29.35 in993.9 mb 0.00 in0.0 mm 0.00 in0.0 mm 0.00 in0.0 mm
03:00 PM 47.1°F8.4°C 30.4°F-0.9°C 52% 6.2 mph SW10.0 kmh SW 11.4 mph18.3 kmh 29.35 in993.9 mb 0.00 in0.0 mm 0.00 in0.0 mm 0.00 in0.0 mm
03:10 PM 46.9°F8.3°C 30.7°F-0.7°C 53% 5.8 mph SSW9.3 kmh SSW 7.6 mph12.2 kmh 29.34 in993.6 mb 0.00 in0.0 mm 0.00 in0.0 mm 0.00 in0.0 mm
03:20 PM 46.9°F8.3°C 31.2°F-0.4°C 54% 6.5 mph SSW10.5 kmh SSW 9.2 mph14.8 kmh 29.34 in993.6 mb 0.00 in0.0 mm 0.00 in0.0 mm 0.00 in0.0 mm
03:30 PM 47.1°F8.4°C 31.3°F-0.4°C 54% 6.6 mph SE10.6 kmh SE 10.7 mph17.2 kmh 29.33 in993.2 mb 0.00 in0.0 mm 0.00 in0.0 mm 0.00 in0.0 mm
03:40 PM 46.9°F8.3°C 31.2°F-0.4°C 54% 8.0 mph S12.9 kmh S 12.1 mph19.5 kmh 29.33 in993.2 mb 0.00 in0.0 mm 0.00 in0.0 mm 0.00 in0.0 mm
03:50 PM 46.8°F8.2°C 31.5°F-0.3°C 55% 7.3 mph SW11.7 kmh SW 9.2 mph14.8 kmh 29.32 in992.9 mb 0.00 in0.0 mm 0.00 in0.0 mm 0.00 in0.0 mm
04:00 PM 46.4°F8.0°C 31.6°F-0.2°C 56% 8.0 mph S12.9 kmh S 10.7 mph17.2 kmh 29.32 in992.9 mb 0.00 in0.0 mm 0.00 in0.0 mm 0.00 in0.0 mm
04:10 PM 46.0°F7.8°C 32.1°F0.1°C 58% 8.7 mph SSW14.0 kmh SSW 12.1 mph19.5 kmh 29.31 in992.6 mb 0.00 in0.0 mm 0.00 in0.0 mm 0.00 in0.0 mm
04:20 PM 46.0°F7.8°C 32.5°F0.3°C 59% 6.1 mph S9.8 kmh S 8.3 mph13.4 kmh 29.30 in992.2 mb 0.00 in0.0 mm 0.00 in0.0 mm 0.00 in0.0 mm
04:30 PM 46.0°F7.8°C 32.9°F0.5°C 60% 7.2 mph SSW11.6 kmh SSW 10.7 mph17.2 kmh 29.29 in991.9 mb 0.00 in0.0 mm 0.00 in0.0 mm 0.00 in0.0 mm
04:40 PM 45.7°F7.6°C 32.6°F0.3°C 60% 7.8 mph S12.6 kmh S 11.4 mph18.3 kmh 29.29 in991.9 mb 0.00 in0.0 mm 0.00 in0.0 mm 0.00 in0.0 mm
04:50 PM 45.5°F7.5°C 32.8°F0.4°C 61% 9.1 mph SSW14.6 kmh SSW 11.4 mph18.3 kmh 29.29 in991.9 mb 0.00 in0.0 mm 0.00 in0.0 mm 0.00 in0.0 mm
05:00 PM 45.3°F7.4°C 34.3°F1.3°C 65% 7.9 mph S12.7 kmh S 13.0 mph20.9 kmh 29.28 in991.5 mb 0.00 in0.0 mm 0.00 in0.0 mm 0.00 in0.0 mm
05:10 PM 45.3°F7.4°C 34.6°F1.4°C 66% 7.3 mph S11.7 kmh S 9.8 mph15.8 kmh 29.27 in991.2 mb 0.00 in0.0 mm 0.00 in0.0 mm 0.00 in0.0 mm
05:20 PM 45.1°F7.3°C 34.8°F1.6°C 67% 9.5 mph SSW15.3 kmh SSW 13.6 mph21.9 kmh 29.27 in991.2 mb 0.00 in0.0 mm 0.00 in0.0 mm 0.00 in0.0 mm
05:30 PM 45.3°F7.4°C 34.6°F1.4°C 66% 7.8 mph SSW12.6 kmh SSW 13.0 mph20.9 kmh 29.26 in990.9 mb 0.00 in0.0 mm 0.00 in0.0 mm 0.00 in0.0 mm
05:40 PM 45.3°F7.4°C 34.6°F1.4°C 66% 5.8 mph WSW9.3 kmh WSW 7.6 mph12.2 kmh 29.26 in990.9 mb 0.00 in0.0 mm 0.00 in0.0 mm 0.00 in0.0 mm
05:50 PM 45.0°F7.2°C 35.0°F1.7°C 68% 8.0 mph SSW12.9 kmh SSW 12.1 mph19.5 kmh 29.26 in990.9 mb 0.00 in0.0 mm 0.00 in0.0 mm 0.00 in0.0 mm
06:00 PM 45.0°F7.2°C 35.4°F1.9°C 69% 9.0 mph S14.5 kmh S 15.2 mph24.5 kmh 29.25 in990.5 mb 0.00 in0.0 mm 0.00 in0.0 mm 0.00 in0.0 mm
06:10 PM 44.8°F7.1°C 35.6°F2.0°C 70% 9.2 mph SSW14.8 kmh SSW 13.0 mph20.9 kmh 29.25 in990.5 mb 0.00 in0.0 mm 0.00 in0.0 mm 0.00 in0.0 mm
06:20 PM 44.8°F7.1°C 35.6°F2.0°C 70% 8.7 mph S14.0 kmh S 13.0 mph20.9 kmh 29.24 in990.2 mb 0.00 in0.0 mm 0.00 in0.0 mm 0.00 in0.0 mm
06:30 PM 44.6°F7.0°C 35.8°F2.1°C 71% 8.4 mph SSW13.5 kmh SSW 15.2 mph24.5 kmh 29.23 in989.8 mb 0.00 in0.0 mm 0.00 in0.0 mm 0.00 in0.0 mm
06:40 PM 44.6°F7.0°C 35.8°F2.1°C 71% 10.7 mph SSW17.2 kmh SSW 15.2 mph24.5 kmh 29.23 in989.8 mb 0.00 in0.0 mm 0.00 in0.0 mm 0.00 in0.0 mm
06:50 PM 44.6°F7.0°C 35.8°F2.1°C 71% 10.9 mph SW17.5 kmh SW 15.9 mph25.6 kmh 29.22 in989.5 mb 0.00 in0.0 mm 0.00 in0.0 mm 0.00 in0.0 mm
07:00 PM 44.6°F7.0°C 35.8°F2.1°C 71% 11.4 mph SSW18.3 kmh SSW 16.8 mph27.0 kmh 29.22 in989.5 mb 0.00 in0.0 mm 0.00 in0.0 mm 0.00 in0.0 mm
07:10 PM 44.8°F7.1°C 36.3°F2.4°C 72% 11.1 mph S17.9 kmh S 16.8 mph27.0 kmh 29.21 in989.2 mb 0.00 in0.0 mm 0.00 in0.0 mm 0.00 in0.0 mm
07:20 PM 44.8°F7.1°C 36.7°F2.6°C 73% 13.0 mph SSW20.9 kmh SSW 17.4 mph28.0 kmh 29.21 in989.2 mb 0.00 in0.0 mm 0.00 in0.0 mm 0.00 in0.0 mm
07:30 PM 45.0°F7.2°C 37.2°F2.9°C 74% 13.4 mph SSW21.6 kmh SSW 17.4 mph28.0 kmh 29.20 in988.8 mb 0.00 in0.0 mm 0.00 in0.0 mm 0.00 in0.0 mm
07:40 PM 45.0°F7.2°C 37.2°F2.9°C 74% 11.9 mph SW19.2 kmh SW 17.4 mph28.0 kmh 29.20 in988.8 mb 0.00 in0.0 mm 0.00 in0.0 mm 0.00 in0.0 mm
07:50 PM 45.0°F7.2°C 36.8°F2.7°C 73% 11.7 mph SW18.8 kmh SW 14.5 mph23.3 kmh 29.19 in988.5 mb 0.00 in0.0 mm 0.00 in0.0 mm 0.00 in0.0 mm
08:00 PM 45.1°F7.3°C 37.0°F2.8°C 73% 13.8 mph WSW22.2 kmh WSW 15.9 mph25.6 kmh 29.19 in988.5 mb 0.00 in0.0 mm 0.00 in0.0 mm 0.00 in0.0 mm
08:10 PM 45.1°F7.3°C 37.4°F3.0°C 74% 12.6 mph SSW20.3 kmh SSW 17.4 mph28.0 kmh 29.18 in988.1 mb 0.00 in0.0 mm 0.00 in0.0 mm 0.00 in0.0 mm
08:20 PM 45.1°F7.3°C 37.4°F3.0°C 74% 13.3 mph SSW21.4 kmh SSW 20.6 mph33.2 kmh 29.18 in988.1 mb 0.00 in0.0 mm 0.00 in0.0 mm 0.00 in0.0 mm
08:30 PM 45.3°F7.4°C 37.2°F2.9°C 73% 12.8 mph SSW20.6 kmh SSW 20.6 mph33.2 kmh 29.17 in987.8 mb 0.00 in0.0 mm 0.00 in0.0 mm 0.00 in0.0 mm
08:40 PM 45.3°F7.4°C 37.2°F2.9°C 73% 14.5 mph SSW23.3 kmh SSW 19.0 mph30.6 kmh 29.16 in987.5 mb 0.00 in0.0 mm 0.00 in0.0 mm 0.00 in0.0 mm
08:50 PM 45.3°F7.4°C 37.2°F2.9°C 73% 13.2 mph SSW21.2 kmh SSW 15.9 mph25.6 kmh 29.16 in987.5 mb 0.00 in0.0 mm 0.00 in0.0 mm 0.00 in0.0 mm
09:00 PM 45.3°F7.4°C 37.2°F2.9°C 73% 16.2 mph SW26.1 kmh SW 22.1 mph35.6 kmh 29.16 in987.5 mb 0.00 in0.0 mm 0.00 in0.0 mm 0.00 in0.0 mm
09:10 PM 45.3°F7.4°C 37.5°F3.1°C 74% 14.4 mph SSW23.2 kmh SSW 20.6 mph33.2 kmh 29.16 in987.5 mb 0.00 in0.0 mm 0.00 in0.0 mm 0.00 in0.0 mm
09:20 PM 45.1°F7.3°C 37.7°F3.2°C 75% 14.0 mph SSW22.5 kmh SSW 20.6 mph33.2 kmh 29.14 in986.8 mb 0.00 in0.0 mm 0.00 in0.0 mm 0.00 in0.0 mm
09:30 PM 45.1°F7.3°C 37.7°F3.2°C 75% 13.8 mph SSW22.2 kmh SSW 22.1 mph35.6 kmh 29.13 in986.5 mb 0.00 in0.0 mm 0.00 in0.0 mm 0.00 in0.0 mm
09:40 PM 45.1°F7.3°C 37.7°F3.2°C 75% 14.1 mph WSW22.7 kmh WSW 22.1 mph35.6 kmh 29.13 in986.5 mb 0.00 in0.0 mm 0.00 in0.0 mm 0.00 in0.0 mm
09:50 PM 45.0°F7.2°C 38.2°F3.4°C 77% 13.8 mph SSW22.2 kmh SSW 17.4 mph28.0 kmh 29.12 in986.1 mb 0.00 in0.0 mm 0.00 in0.0 mm 0.00 in0.0 mm
10:00 PM 44.6°F7.0°C 38.5°F3.6°C 79% 13.5 mph S21.7 kmh S 15.9 mph25.6 kmh 29.11 in985.8 mb 0.00 in0.0 mm 0.00 in0.0 mm 0.00 in0.0 mm
10:10 PM 44.6°F7.0°C 38.8°F3.8°C 80% 13.4 mph SSW21.6 kmh SSW 17.4 mph28.0 kmh 29.10 in985.4 mb 0.00 in0.0 mm 0.00 in0.0 mm 0.00 in0.0 mm
10:20 PM 44.4°F6.9°C 39.0°F3.9°C 81% 14.5 mph SSW23.3 kmh SSW 23.5 mph37.8 kmh 29.09 in985.1 mb 0.01 in0.3 mm 0.06 in1.5 mm 0.01 in0.3 mm
10:30 PM 44.4°F6.9°C 39.3°F4.1°C 82% 14.7 mph SSW23.7 kmh SSW 19.0 mph30.6 kmh 29.08 in984.8 mb 0.02 in0.5 mm 0.06 in1.5 mm 0.02 in0.5 mm
10:40 PM 44.4°F6.9°C 39.6°F4.2°C 83% 15.4 mph S24.8 kmh S 19.0 mph30.6 kmh 29.08 in984.8 mb 0.02 in0.5 mm 0.00 in0.0 mm 0.02 in0.5 mm
10:50 PM 44.4°F6.9°C 39.6°F4.2°C 83% 16.2 mph SSW26.1 kmh SSW 21.3 mph34.3 kmh 29.07 in984.4 mb 0.04 in1.0 mm 0.12 in3.0 mm 0.04 in1.0 mm
11:00 PM 44.4°F6.9°C 39.9°F4.4°C 84% 19.3 mph SSW31.1 kmh SSW 30.4 mph48.9 kmh 29.06 in984.1 mb 0.05 in1.3 mm 0.01 in0.3 mm 0.05 in1.3 mm
11:10 PM 44.4°F6.9°C 39.9°F4.4°C 84% 16.4 mph SW26.4 kmh SW 25.9 mph41.7 kmh 29.06 in984.1 mb 0.05 in1.3 mm 0.00 in0.0 mm 0.05 in1.3 mm
11:20 PM 44.4°F6.9°C 39.9°F4.4°C 84% 16.8 mph SW27.0 kmh SW 18.3 mph29.5 kmh 29.05 in983.7 mb 0.04 in1.0 mm 0.00 in0.0 mm 0.05 in1.3 mm
11:30 PM 44.4°F6.9°C 39.9°F4.4°C 84% 16.8 mph SW27.0 kmh SW 18.3 mph29.5 kmh 29.04 in983.4 mb 0.02 in0.5 mm 0.00 in0.0 mm 0.05 in1.3 mm
11:40 PM 44.4°F6.9°C 39.9°F4.4°C 84% 16.8 mph SW27.0 kmh SW 18.3 mph29.5 kmh 29.03 in983.1 mb 0.02 in0.5 mm 0.00 in0.0 mm 0.05 in1.3 mm
11:50 PM 44.4°F6.9°C 39.9°F4.4°C 84% 16.8 mph SW27.0 kmh SW 18.3 mph29.5 kmh 29.02 in982.7 mb 0.01 in0.3 mm 0.00 in0.0 mm 0.05 in1.3 mm